sensor_id;sensor_type;location;lat;lon;timestamp;P1;durP1;ratioP1;P2;durP2;ratioP2
75426;SDS011;64007;50.632;13.700;2023-07-20T00:01:30;4.50;;;2.03;;
75426;SDS011;64007;50.632;13.700;2023-07-20T00:03:56;10.65;;;2.28;;
75426;SDS011;64007;50.632;13.700;2023-07-20T00:06:22;5.00;;;2.40;;
75426;SDS011;64007;50.632;13.700;2023-07-20T00:08:49;10.57;;;2.78;;
75426;SDS011;64007;50.632;13.700;2023-07-20T00:11:14;4.45;;;2.40;;
75426;SDS011;64007;50.632;13.700;2023-07-20T00:13:40;6.75;;;3.22;;
75426;SDS011;64007;50.632;13.700;2023-07-20T00:16:06;5.93;;;3.28;;
75426;SDS011;64007;50.632;13.700;2023-07-20T00:18:32;6.53;;;3.15;;
75426;SDS011;64007;50.632;13.700;2023-07-20T00:20:58;6.57;;;3.15;;
75426;SDS011;64007;50.632;13.700;2023-07-20T00:23:27;4.95;;;3.08;;
75426;SDS011;64007;50.632;13.700;2023-07-20T00:25:53;6.00;;;3.03;;
75426;SDS011;64007;50.632;13.700;2023-07-20T00:28:19;6.53;;;2.75;;
75426;SDS011;64007;50.632;13.700;2023-07-20T00:30:45;5.85;;;2.78;;
75426;SDS011;64007;50.632;13.700;2023-07-20T00:33:11;3.90;;;2.53;;
75426;SDS011;64007;50.632;13.700;2023-07-20T00:35:37;5.90;;;2.72;;
75426;SDS011;64007;50.632;13.700;2023-07-20T00:38:04;4.55;;;2.50;;
75426;SDS011;64007;50.632;13.700;2023-07-20T00:40:39;5.38;;;3.00;;
75426;SDS011;64007;50.632;13.700;2023-07-20T00:43:06;6.72;;;2.80;;
75426;SDS011;64007;50.632;13.700;2023-07-20T00:45:33;3.75;;;2.60;;
75426;SDS011;64007;50.632;13.700;2023-07-20T00:48:01;7.32;;;2.70;;
75426;SDS011;64007;50.632;13.700;2023-07-20T00:50:29;4.05;;;2.70;;
75426;SDS011;64007;50.632;13.700;2023-07-20T00:52:56;9.40;;;3.05;;
75426;SDS011;64007;50.632;13.700;2023-07-20T00:55:23;6.07;;;2.92;;
75426;SDS011;64007;50.632;13.700;2023-07-20T00:57:50;4.63;;;2.58;;
75426;SDS011;64007;50.632;13.700;2023-07-20T01:00:16;5.50;;;2.85;;
75426;SDS011;64007;50.632;13.700;2023-07-20T01:02:43;4.07;;;2.83;;
75426;SDS011;64007;50.632;13.700;2023-07-20T01:05:08;10.00;;;2.63;;
75426;SDS011;64007;50.632;13.700;2023-07-20T01:13:36;4.03;;;2.17;;
75426;SDS011;64007;50.632;13.700;2023-07-20T01:16:03;3.50;;;1.98;;
75426;SDS011;64007;50.632;13.700;2023-07-20T01:18:29;2.75;;;1.77;;
75426;SDS011;64007;50.632;13.700;2023-07-20T01:20:59;2.70;;;1.52;;
75426;SDS011;64007;50.632;13.700;2023-07-20T01:26:34;3.03;;;1.77;;
75426;SDS011;64007;50.632;13.700;2023-07-20T01:29:25;4.80;;;2.30;;
75426;SDS011;64007;50.632;13.700;2023-07-20T01:31:54;3.15;;;1.98;;
75426;SDS011;64007;50.632;13.700;2023-07-20T01:34:22;3.30;;;2.22;;
75426;SDS011;64007;50.632;13.700;2023-07-20T01:36:50;6.03;;;2.20;;
75426;SDS011;64007;50.632;13.700;2023-07-20T01:39:19;3.42;;;2.15;;
75426;SDS011;64007;50.632;13.700;2023-07-20T01:41:46;7.28;;;1.88;;
75426;SDS011;64007;50.632;13.700;2023-07-20T01:44:13;4.18;;;2.13;;
75426;SDS011;64007;50.632;13.700;2023-07-20T01:46:38;3.95;;;2.42;;
75426;SDS011;64007;50.632;13.700;2023-07-20T01:49:04;3.90;;;2.30;;
75426;SDS011;64007;50.632;13.700;2023-07-20T01:51:30;4.18;;;2.30;;
75426;SDS011;64007;50.632;13.700;2023-07-20T01:53:56;2.97;;;1.95;;
75426;SDS011;64007;50.632;13.700;2023-07-20T01:56:21;3.17;;;2.08;;
75426;SDS011;64007;50.632;13.700;2023-07-20T01:58:47;8.90;;;2.10;;
75426;SDS011;64007;50.632;13.700;2023-07-20T02:01:13;1.80;;;1.38;;
75426;SDS011;64007;50.632;13.700;2023-07-20T02:03:39;4.95;;;2.35;;
75426;SDS011;64007;50.632;13.700;2023-07-20T02:06:04;17.73;;;2.78;;
75426;SDS011;64007;50.632;13.700;2023-07-20T02:08:30;11.55;;;2.90;;
75426;SDS011;64007;50.632;13.700;2023-07-20T02:10:56;8.93;;;2.63;;
75426;SDS011;64007;50.632;13.700;2023-07-20T02:13:22;12.65;;;3.47;;
75426;SDS011;64007;50.632;13.700;2023-07-20T02:15:48;5.97;;;3.13;;
75426;SDS011;64007;50.632;13.700;2023-07-20T02:18:15;13.48;;;3.47;;
75426;SDS011;64007;50.632;13.700;2023-07-20T02:20:40;7.35;;;2.53;;
75426;SDS011;64007;50.632;13.700;2023-07-20T02:23:07;3.72;;;2.00;;
75426;SDS011;64007;50.632;13.700;2023-07-20T02:25:33;7.18;;;1.92;;
75426;SDS011;64007;50.632;13.700;2023-07-20T02:27:59;5.70;;;2.42;;
75426;SDS011;64007;50.632;13.700;2023-07-20T02:30:24;4.72;;;2.03;;
75426;SDS011;64007;50.632;13.700;2023-07-20T02:32:50;5.15;;;2.30;;
75426;SDS011;64007;50.632;13.700;2023-07-20T02:35:16;7.45;;;2.10;;
75426;SDS011;64007;50.632;13.700;2023-07-20T02:37:42;8.23;;;2.50;;
75426;SDS011;64007;50.632;13.700;2023-07-20T02:40:07;4.03;;;2.28;;
75426;SDS011;64007;50.632;13.700;2023-07-20T02:42:34;6.82;;;2.42;;
75426;SDS011;64007;50.632;13.700;2023-07-20T02:45:01;7.28;;;2.58;;
75426;SDS011;64007;50.632;13.700;2023-07-20T02:47:28;2.83;;;2.10;;
75426;SDS011;64007;50.632;13.700;2023-07-20T02:49:54;4.22;;;2.30;;
75426;SDS011;64007;50.632;13.700;2023-07-20T02:52:20;11.60;;;2.80;;
75426;SDS011;64007;50.632;13.700;2023-07-20T02:54:45;3.38;;;2.17;;
75426;SDS011;64007;50.632;13.700;2023-07-20T02:57:11;6.93;;;2.50;;
75426;SDS011;64007;50.632;13.700;2023-07-20T02:59:37;5.78;;;2.33;;
75426;SDS011;64007;50.632;13.700;2023-07-20T03:02:02;2.80;;;1.98;;
75426;SDS011;64007;50.632;13.700;2023-07-20T03:04:28;3.22;;;1.80;;
75426;SDS011;64007;50.632;13.700;2023-07-20T03:06:54;3.47;;;1.85;;
75426;SDS011;64007;50.632;13.700;2023-07-20T03:09:19;3.53;;;1.88;;
75426;SDS011;64007;50.632;13.700;2023-07-20T03:11:45;2.90;;;2.03;;
75426;SDS011;64007;50.632;13.700;2023-07-20T03:14:11;3.53;;;2.00;;
75426;SDS011;64007;50.632;13.700;2023-07-20T03:16:38;2.72;;;1.98;;
75426;SDS011;64007;50.632;13.700;2023-07-20T03:19:03;2.47;;;2.00;;
75426;SDS011;64007;50.632;13.700;2023-07-20T03:21:30;3.08;;;2.00;;
75426;SDS011;64007;50.632;13.700;2023-07-20T03:23:55;4.22;;;1.70;;
75426;SDS011;64007;50.632;13.700;2023-07-20T03:26:21;4.20;;;1.52;;
75426;SDS011;64007;50.632;13.700;2023-07-20T03:28:47;7.13;;;1.83;;
75426;SDS011;64007;50.632;13.700;2023-07-20T03:31:12;3.38;;;1.80;;
75426;SDS011;64007;50.632;13.700;2023-07-20T03:33:40;2.90;;;1.63;;
75426;SDS011;64007;50.632;13.700;2023-07-20T03:36:06;3.75;;;1.85;;
75426;SDS011;64007;50.632;13.700;2023-07-20T03:38:31;5.55;;;2.40;;
75426;SDS011;64007;50.632;13.700;2023-07-20T03:40:58;5.43;;;1.90;;
75426;SDS011;64007;50.632;13.700;2023-07-20T03:43:26;5.15;;;2.00;;
75426;SDS011;64007;50.632;13.700;2023-07-20T03:45:52;4.30;;;1.92;;
75426;SDS011;64007;50.632;13.700;2023-07-20T03:48:19;5.18;;;1.80;;
75426;SDS011;64007;50.632;13.700;2023-07-20T03:50:50;4.18;;;1.83;;
75426;SDS011;64007;50.632;13.700;2023-07-20T03:53:17;2.85;;;1.77;;
75426;SDS011;64007;50.632;13.700;2023-07-20T03:55:44;4.90;;;1.67;;
75426;SDS011;64007;50.632;13.700;2023-07-20T03:58:11;3.25;;;1.88;;
75426;SDS011;64007;50.632;13.700;2023-07-20T04:00:38;3.72;;;2.30;;
75426;SDS011;64007;50.632;13.700;2023-07-20T04:03:05;5.20;;;2.00;;
75426;SDS011;64007;50.632;13.700;2023-07-20T04:05:31;3.40;;;1.80;;
75426;SDS011;64007;50.632;13.700;2023-07-20T04:07:56;2.53;;;1.88;;
75426;SDS011;64007;50.632;13.700;2023-07-20T04:10:22;3.60;;;1.90;;
75426;SDS011;64007;50.632;13.700;2023-07-20T04:12:47;5.53;;;2.40;;
75426;SDS011;64007;50.632;13.700;2023-07-20T04:15:13;6.38;;;2.53;;
75426;SDS011;64007;50.632;13.700;2023-07-20T04:17:40;5.10;;;2.20;;
75426;SDS011;64007;50.632;13.700;2023-07-20T04:20:09;2.45;;;1.80;;
75426;SDS011;64007;50.632;13.700;2023-07-20T04:22:34;3.92;;;1.80;;
75426;SDS011;64007;50.632;13.700;2023-07-20T04:25:00;4.65;;;1.80;;
75426;SDS011;64007;50.632;13.700;2023-07-20T04:27:26;5.03;;;1.83;;
75426;SDS011;64007;50.632;13.700;2023-07-20T04:29:52;2.25;;;1.75;;
75426;SDS011;64007;50.632;13.700;2023-07-20T04:32:18;4.07;;;2.00;;
75426;SDS011;64007;50.632;13.700;2023-07-20T04:34:44;2.78;;;1.85;;
75426;SDS011;64007;50.632;13.700;2023-07-20T04:37:09;2.38;;;1.73;;
75426;SDS011;64007;50.632;13.700;2023-07-20T04:39:35;4.00;;;2.58;;
75426;SDS011;64007;50.632;13.700;2023-07-20T04:42:01;3.20;;;2.08;;
75426;SDS011;64007;50.632;13.700;2023-07-20T04:44:26;3.20;;;2.15;;
75426;SDS011;64007;50.632;13.700;2023-07-20T04:46:52;2.85;;;2.13;;
75426;SDS011;64007;50.632;13.700;2023-07-20T04:49:18;3.55;;;2.25;;
75426;SDS011;64007;50.632;13.700;2023-07-20T04:51:44;4.15;;;2.33;;
75426;SDS011;64007;50.632;13.700;2023-07-20T04:54:10;3.80;;;2.40;;
75426;SDS011;64007;50.632;13.700;2023-07-20T04:56:36;3.38;;;2.35;;
75426;SDS011;64007;50.632;13.700;2023-07-20T04:59:02;5.25;;;2.38;;
75426;SDS011;64007;50.632;13.700;2023-07-20T05:01:27;3.67;;;2.28;;
75426;SDS011;64007;50.632;13.700;2023-07-20T05:03:53;2.80;;;2.05;;
75426;SDS011;64007;50.632;13.700;2023-07-20T05:06:19;5.03;;;2.30;;
75426;SDS011;64007;50.632;13.700;2023-07-20T05:08:45;3.58;;;2.10;;
75426;SDS011;64007;50.632;13.700;2023-07-20T05:11:11;3.28;;;2.15;;
75426;SDS011;64007;50.632;13.700;2023-07-20T05:13:37;2.92;;;1.85;;
75426;SDS011;64007;50.632;13.700;2023-07-20T05:16:03;4.03;;;2.20;;
75426;SDS011;64007;50.632;13.700;2023-07-20T05:18:29;5.22;;;2.40;;
75426;SDS011;64007;50.632;13.700;2023-07-20T05:20:55;6.32;;;2.40;;
75426;SDS011;64007;50.632;13.700;2023-07-20T05:23:21;4.05;;;2.13;;
75426;SDS011;64007;50.632;13.700;2023-07-20T05:25:47;4.47;;;2.25;;
75426;SDS011;64007;50.632;13.700;2023-07-20T05:28:23;3.92;;;2.17;;
75426;SDS011;64007;50.632;13.700;2023-07-20T05:30:50;4.18;;;2.47;;
75426;SDS011;64007;50.632;13.700;2023-07-20T05:33:17;5.30;;;2.20;;
75426;SDS011;64007;50.632;13.700;2023-07-20T05:35:46;2.65;;;1.70;;
75426;SDS011;64007;50.632;13.700;2023-07-20T05:38:12;3.05;;;2.10;;
75426;SDS011;64007;50.632;13.700;2023-07-20T05:40:39;4.57;;;2.00;;
75426;SDS011;64007;50.632;13.700;2023-07-20T05:43:06;3.00;;;1.92;;
75426;SDS011;64007;50.632;13.700;2023-07-20T05:45:32;3.95;;;2.00;;
75426;SDS011;64007;50.632;13.700;2023-07-20T05:47:58;6.50;;;2.30;;
75426;SDS011;64007;50.632;13.700;2023-07-20T05:50:23;4.93;;;2.05;;
75426;SDS011;64007;50.632;13.700;2023-07-20T05:52:52;2.72;;;1.80;;
75426;SDS011;64007;50.632;13.700;2023-07-20T05:55:18;8.15;;;2.20;;
75426;SDS011;64007;50.632;13.700;2023-07-20T05:57:44;5.30;;;1.98;;
75426;SDS011;64007;50.632;13.700;2023-07-20T06:00:09;5.38;;;2.00;;
75426;SDS011;64007;50.632;13.700;2023-07-20T06:02:37;4.13;;;2.08;;
75426;SDS011;64007;50.632;13.700;2023-07-20T06:05:04;4.07;;;2.42;;
75426;SDS011;64007;50.632;13.700;2023-07-20T06:07:30;4.88;;;2.20;;
75426;SDS011;64007;50.632;13.700;2023-07-20T06:09:57;6.03;;;2.50;;
75426;SDS011;64007;50.632;13.700;2023-07-20T06:12:23;3.15;;;2.30;;
75426;SDS011;64007;50.632;13.700;2023-07-20T06:14:49;3.47;;;2.33;;
75426;SDS011;64007;50.632;13.700;2023-07-20T06:17:15;4.90;;;2.33;;
75426;SDS011;64007;50.632;13.700;2023-07-20T06:19:41;2.83;;;2.28;;
75426;SDS011;64007;50.632;13.700;2023-07-20T06:22:08;4.25;;;2.30;;
75426;SDS011;64007;50.632;13.700;2023-07-20T06:24:33;4.45;;;2.38;;
75426;SDS011;64007;50.632;13.700;2023-07-20T06:26:59;4.20;;;2.33;;
75426;SDS011;64007;50.632;13.700;2023-07-20T06:29:25;3.95;;;1.85;;
75426;SDS011;64007;50.632;13.700;2023-07-20T06:31:50;5.47;;;2.00;;
75426;SDS011;64007;50.632;13.700;2023-07-20T06:34:16;2.50;;;1.67;;
75426;SDS011;64007;50.632;13.700;2023-07-20T06:36:42;3.17;;;1.80;;
75426;SDS011;64007;50.632;13.700;2023-07-20T06:39:08;5.32;;;1.80;;
75426;SDS011;64007;50.632;13.700;2023-07-20T06:41:34;2.00;;;1.55;;
75426;SDS011;64007;50.632;13.700;2023-07-20T06:43:59;3.40;;;1.52;;
75426;SDS011;64007;50.632;13.700;2023-07-20T06:46:25;3.05;;;1.70;;
75426;SDS011;64007;50.632;13.700;2023-07-20T06:48:51;6.15;;;2.60;;
75426;SDS011;64007;50.632;13.700;2023-07-20T06:51:17;2.47;;;1.42;;
75426;SDS011;64007;50.632;13.700;2023-07-20T06:53:43;2.78;;;1.50;;
75426;SDS011;64007;50.632;13.700;2023-07-20T06:56:09;7.65;;;1.50;;
75426;SDS011;64007;50.632;13.700;2023-07-20T06:58:34;1.70;;;1.25;;
75426;SDS011;64007;50.632;13.700;2023-07-20T07:01:09;1.70;;;1.10;;
75426;SDS011;64007;50.632;13.700;2023-07-20T07:03:35;1.75;;;1.20;;
75426;SDS011;64007;50.632;13.700;2023-07-20T07:06:02;3.17;;;1.20;;
75426;SDS011;64007;50.632;13.700;2023-07-20T07:08:28;2.70;;;1.50;;
75426;SDS011;64007;50.632;13.700;2023-07-20T07:10:54;3.05;;;1.30;;
75426;SDS011;64007;50.632;13.700;2023-07-20T07:13:20;2.75;;;1.30;;
75426;SDS011;64007;50.632;13.700;2023-07-20T07:15:46;2.95;;;1.60;;
75426;SDS011;64007;50.632;13.700;2023-07-20T07:18:12;1.88;;;1.10;;
75426;SDS011;64007;50.632;13.700;2023-07-20T07:20:38;3.40;;;1.52;;
75426;SDS011;64007;50.632;13.700;2023-07-20T07:23:03;2.10;;;1.40;;
75426;SDS011;64007;50.632;13.700;2023-07-20T07:25:29;3.33;;;1.48;;
75426;SDS011;64007;50.632;13.700;2023-07-20T07:27:55;1.90;;;1.30;;
75426;SDS011;64007;50.632;13.700;2023-07-20T07:30:21;6.22;;;1.42;;
75426;SDS011;64007;50.632;13.700;2023-07-20T07:32:47;3.50;;;1.50;;
75426;SDS011;64007;50.632;13.700;2023-07-20T07:35:13;4.63;;;1.10;;
75426;SDS011;64007;50.632;13.700;2023-07-20T07:37:39;2.30;;;1.00;;
75426;SDS011;64007;50.632;13.700;2023-07-20T07:40:05;4.40;;;1.05;;
75426;SDS011;64007;50.632;13.700;2023-07-20T07:42:32;1.00;;;0.90;;
75426;SDS011;64007;50.632;13.700;2023-07-20T07:44:58;1.23;;;1.02;;
75426;SDS011;64007;50.632;13.700;2023-07-20T07:47:23;2.10;;;1.20;;
75426;SDS011;64007;50.632;13.700;2023-07-20T07:49:49;1.80;;;0.90;;
75426;SDS011;64007;50.632;13.700;2023-07-20T07:52:15;1.40;;;0.90;;
75426;SDS011;64007;50.632;13.700;2023-07-20T07:54:41;1.70;;;1.20;;
75426;SDS011;64007;50.632;13.700;2023-07-20T07:57:06;1.10;;;0.90;;
75426;SDS011;64007;50.632;13.700;2023-07-20T07:59:32;2.08;;;1.10;;
75426;SDS011;64007;50.632;13.700;2023-07-20T08:02:02;2.03;;;0.80;;
75426;SDS011;64007;50.632;13.700;2023-07-20T08:04:30;2.67;;;1.40;;
75426;SDS011;64007;50.632;13.700;2023-07-20T08:06:55;3.10;;;1.00;;
75426;SDS011;64007;50.632;13.700;2023-07-20T08:09:22;1.20;;;0.80;;
75426;SDS011;64007;50.632;13.700;2023-07-20T08:11:47;3.38;;;1.63;;
75426;SDS011;64007;50.632;13.700;2023-07-20T08:14:14;1.02;;;0.82;;
75426;SDS011;64007;50.632;13.700;2023-07-20T08:16:40;1.88;;;0.80;;
75426;SDS011;64007;50.632;13.700;2023-07-20T08:19:06;0.70;;;0.70;;
75426;SDS011;64007;50.632;13.700;2023-07-20T08:21:31;1.45;;;0.73;;
75426;SDS011;64007;50.632;13.700;2023-07-20T08:23:57;1.42;;;0.70;;
75426;SDS011;64007;50.632;13.700;2023-07-20T08:26:23;0.70;;;0.70;;
75426;SDS011;64007;50.632;13.700;2023-07-20T08:28:49;1.77;;;0.77;;
75426;SDS011;64007;50.632;13.700;2023-07-20T08:31:15;0.95;;;0.75;;
75426;SDS011;64007;50.632;13.700;2023-07-20T08:33:41;1.15;;;0.70;;
75426;SDS011;64007;50.632;13.700;2023-07-20T08:36:06;0.85;;;0.80;;
75426;SDS011;64007;50.632;13.700;2023-07-20T08:38:33;1.70;;;0.80;;
75426;SDS011;64007;50.632;13.700;2023-07-20T08:40:58;1.83;;;1.00;;
75426;SDS011;64007;50.632;13.700;2023-07-20T08:43:25;2.88;;;1.10;;
75426;SDS011;64007;50.632;13.700;2023-07-20T08:45:53;3.13;;;1.50;;
75426;SDS011;64007;50.632;13.700;2023-07-20T08:48:21;5.47;;;1.30;;
75426;SDS011;64007;50.632;13.700;2023-07-20T08:50:49;4.32;;;1.08;;
75426;SDS011;64007;50.632;13.700;2023-07-20T08:53:17;2.08;;;1.40;;
75426;SDS011;64007;50.632;13.700;2023-07-20T08:55:44;5.15;;;1.23;;
75426;SDS011;64007;50.632;13.700;2023-07-20T08:58:13;3.92;;;1.20;;
75426;SDS011;64007;50.632;13.700;2023-07-20T09:00:41;1.90;;;1.13;;
75426;SDS011;64007;50.632;13.700;2023-07-20T09:03:07;5.53;;;1.20;;
75426;SDS011;64007;50.632;13.700;2023-07-20T09:05:33;2.92;;;1.08;;
75426;SDS011;64007;50.632;13.700;2023-07-20T09:08:01;8.05;;;1.23;;
75426;SDS011;64007;50.632;13.700;2023-07-20T09:10:29;5.57;;;1.40;;
75426;SDS011;64007;50.632;13.700;2023-07-20T09:12:55;3.55;;;1.35;;
75426;SDS011;64007;50.632;13.700;2023-07-20T09:15:21;3.30;;;1.40;;
75426;SDS011;64007;50.632;13.700;2023-07-20T09:17:48;2.95;;;1.00;;
75426;SDS011;64007;50.632;13.700;2023-07-20T09:20:15;1.80;;;1.30;;
75426;SDS011;64007;50.632;13.700;2023-07-20T09:22:43;1.40;;;1.10;;
75426;SDS011;64007;50.632;13.700;2023-07-20T09:25:12;5.50;;;1.20;;
75426;SDS011;64007;50.632;13.700;2023-07-20T09:27:44;3.35;;;1.13;;
75426;SDS011;64007;50.632;13.700;2023-07-20T09:30:11;2.90;;;1.30;;
75426;SDS011;64007;50.632;13.700;2023-07-20T09:32:46;2.53;;;1.10;;
75426;SDS011;64007;50.632;13.700;2023-07-20T09:35:17;3.78;;;1.90;;
75426;SDS011;64007;50.632;13.700;2023-07-20T09:37:49;2.75;;;1.15;;
75426;SDS011;64007;50.632;13.700;2023-07-20T09:40:19;1.52;;;1.00;;
75426;SDS011;64007;50.632;13.700;2023-07-20T09:42:45;3.97;;;1.40;;
75426;SDS011;64007;50.632;13.700;2023-07-20T09:45:12;2.55;;;1.30;;
75426;SDS011;64007;50.632;13.700;2023-07-20T09:47:38;2.17;;;1.10;;
75426;SDS011;64007;50.632;13.700;2023-07-20T09:50:05;1.20;;;0.90;;
75426;SDS011;64007;50.632;13.700;2023-07-20T09:52:39;2.35;;;1.20;;
75426;SDS011;64007;50.632;13.700;2023-07-20T09:55:08;2.08;;;1.20;;
75426;SDS011;64007;50.632;13.700;2023-07-20T09:57:35;2.13;;;1.20;;
75426;SDS011;64007;50.632;13.700;2023-07-20T10:00:02;3.33;;;1.48;;
75426;SDS011;64007;50.632;13.700;2023-07-20T10:02:34;2.50;;;1.23;;
75426;SDS011;64007;50.632;13.700;2023-07-20T10:05:06;2.13;;;1.13;;
75426;SDS011;64007;50.632;13.700;2023-07-20T10:07:35;2.63;;;1.20;;
75426;SDS011;64007;50.632;13.700;2023-07-20T10:10:05;1.30;;;1.00;;
75426;SDS011;64007;50.632;13.700;2023-07-20T10:12:33;1.25;;;1.00;;
75426;SDS011;64007;50.632;13.700;2023-07-20T10:15:09;2.53;;;1.20;;
75426;SDS011;64007;50.632;13.700;2023-07-20T10:17:38;1.92;;;1.00;;
75426;SDS011;64007;50.632;13.700;2023-07-20T10:20:15;2.75;;;1.25;;
75426;SDS011;64007;50.632;13.700;2023-07-20T10:22:44;2.90;;;1.05;;
75426;SDS011;64007;50.632;13.700;2023-07-20T10:25:12;3.33;;;1.10;;
75426;SDS011;64007;50.632;13.700;2023-07-20T10:27:39;1.92;;;1.17;;
75426;SDS011;64007;50.632;13.700;2023-07-20T10:30:05;3.30;;;1.40;;
75426;SDS011;64007;50.632;13.700;2023-07-20T10:32:32;1.88;;;1.15;;
75426;SDS011;64007;50.632;13.700;2023-07-20T10:34:58;0.88;;;0.82;;
75426;SDS011;64007;50.632;13.700;2023-07-20T10:40:27;1.33;;;0.90;;
75426;SDS011;64007;50.632;13.700;2023-07-20T10:42:57;3.85;;;1.10;;
75426;SDS011;64007;50.632;13.700;2023-07-20T10:45:34;1.70;;;1.00;;
75426;SDS011;64007;50.632;13.700;2023-07-20T10:48:13;1.73;;;1.08;;
75426;SDS011;64007;50.632;13.700;2023-07-20T10:50:41;1.52;;;1.10;;
75426;SDS011;64007;50.632;13.700;2023-07-20T10:53:14;2.05;;;1.10;;
75426;SDS011;64007;50.632;13.700;2023-07-20T10:55:41;4.35;;;1.25;;
75426;SDS011;64007;50.632;13.700;2023-07-20T10:58:12;2.47;;;1.20;;
75426;SDS011;64007;50.632;13.700;2023-07-20T11:00:55;1.42;;;1.00;;
75426;SDS011;64007;50.632;13.700;2023-07-20T11:03:29;3.80;;;1.00;;
75426;SDS011;64007;50.632;13.700;2023-07-20T11:05:56;2.25;;;1.20;;
75426;SDS011;64007;50.632;13.700;2023-07-20T11:08:40;2.88;;;1.08;;
75426;SDS011;64007;50.632;13.700;2023-07-20T11:13:58;4.40;;;1.13;;
75426;SDS011;64007;50.632;13.700;2023-07-20T11:16:41;1.80;;;1.27;;
75426;SDS011;64007;50.632;13.700;2023-07-20T11:21:44;1.33;;;0.88;;
75426;SDS011;64007;50.632;13.700;2023-07-20T11:24:11;4.35;;;1.40;;
75426;SDS011;64007;50.632;13.700;2023-07-20T11:26:42;1.75;;;1.00;;
75426;SDS011;64007;50.632;13.700;2023-07-20T11:29:15;2.10;;;1.08;;
75426;SDS011;64007;50.632;13.700;2023-07-20T11:31:42;2.25;;;1.10;;
75426;SDS011;64007;50.632;13.700;2023-07-20T11:34:13;2.45;;;1.00;;
75426;SDS011;64007;50.632;13.700;2023-07-20T11:36:40;4.00;;;1.10;;
75426;SDS011;64007;50.632;13.700;2023-07-20T11:39:12;2.25;;;1.00;;
75426;SDS011;64007;50.632;13.700;2023-07-20T11:41:39;3.67;;;1.00;;
75426;SDS011;64007;50.632;13.700;2023-07-20T11:44:13;3.47;;;1.02;;
75426;SDS011;64007;50.632;13.700;2023-07-20T11:46:40;2.00;;;1.20;;
75426;SDS011;64007;50.632;13.700;2023-07-20T11:49:08;1.27;;;1.00;;
75426;SDS011;64007;50.632;13.700;2023-07-20T11:51:34;7.13;;;0.95;;
75426;SDS011;64007;50.632;13.700;2023-07-20T11:54:00;2.03;;;1.08;;
75426;SDS011;64007;50.632;13.700;2023-07-20T11:56:27;1.85;;;1.02;;
75426;SDS011;64007;50.632;13.700;2023-07-20T11:58:54;3.33;;;1.20;;
75426;SDS011;64007;50.632;13.700;2023-07-20T12:01:26;3.85;;;1.00;;
75426;SDS011;64007;50.632;13.700;2023-07-20T12:03:57;0.77;;;0.77;;
75426;SDS011;64007;50.632;13.700;2023-07-20T12:06:25;1.20;;;1.08;;
75426;SDS011;64007;50.632;13.700;2023-07-20T12:08:58;1.55;;;1.02;;
75426;SDS011;64007;50.632;13.700;2023-07-20T12:11:34;2.10;;;0.85;;
75426;SDS011;64007;50.632;13.700;2023-07-20T12:14:02;2.08;;;0.95;;
75426;SDS011;64007;50.632;13.700;2023-07-20T12:16:29;1.33;;;1.00;;
75426;SDS011;64007;50.632;13.700;2023-07-20T12:19:08;1.77;;;0.80;;
75426;SDS011;64007;50.632;13.700;2023-07-20T12:21:37;1.60;;;1.02;;
75426;SDS011;64007;50.632;13.700;2023-07-20T12:24:04;1.80;;;0.90;;
75426;SDS011;64007;50.632;13.700;2023-07-20T12:26:31;1.00;;;0.90;;
75426;SDS011;64007;50.632;13.700;2023-07-20T12:28:57;3.15;;;1.20;;
75426;SDS011;64007;50.632;13.700;2023-07-20T12:31:24;2.90;;;1.10;;
75426;SDS011;64007;50.632;13.700;2023-07-20T12:33:51;4.60;;;1.40;;
75426;SDS011;64007;50.632;13.700;2023-07-20T12:36:17;1.63;;;0.95;;
75426;SDS011;64007;50.632;13.700;2023-07-20T12:38:43;1.05;;;0.80;;
75426;SDS011;64007;50.632;13.700;2023-07-20T12:41:10;2.35;;;1.10;;
75426;SDS011;64007;50.632;13.700;2023-07-20T12:43:40;1.95;;;1.02;;
75426;SDS011;64007;50.632;13.700;2023-07-20T12:46:06;2.47;;;1.02;;
75426;SDS011;64007;50.632;13.700;2023-07-20T12:48:32;1.83;;;1.02;;
75426;SDS011;64007;50.632;13.700;2023-07-20T12:50:58;2.30;;;1.00;;
75426;SDS011;64007;50.632;13.700;2023-07-20T12:53:24;1.45;;;1.00;;
75426;SDS011;64007;50.632;13.700;2023-07-20T12:55:50;3.28;;;1.23;;
75426;SDS011;64007;50.632;13.700;2023-07-20T12:58:15;2.00;;;1.10;;
75426;SDS011;64007;50.632;13.700;2023-07-20T13:00:41;4.22;;;0.80;;
75426;SDS011;64007;50.632;13.700;2023-07-20T13:03:07;1.48;;;0.93;;
75426;SDS011;64007;50.632;13.700;2023-07-20T13:05:34;1.55;;;0.90;;
75426;SDS011;64007;50.632;13.700;2023-07-20T13:08:01;1.52;;;1.02;;
75426;SDS011;64007;50.632;13.700;2023-07-20T13:10:27;1.05;;;0.82;;
75426;SDS011;64007;50.632;13.700;2023-07-20T13:12:54;2.92;;;1.00;;
75426;SDS011;64007;50.632;13.700;2023-07-20T13:15:19;1.20;;;0.80;;
75426;SDS011;64007;50.632;13.700;2023-07-20T13:17:45;2.85;;;1.20;;
75426;SDS011;64007;50.632;13.700;2023-07-20T13:20:11;1.67;;;0.90;;
75426;SDS011;64007;50.632;13.700;2023-07-20T13:22:38;0.90;;;0.70;;
75426;SDS011;64007;50.632;13.700;2023-07-20T13:25:03;1.73;;;0.70;;
75426;SDS011;64007;50.632;13.700;2023-07-20T13:27:30;2.58;;;0.73;;
75426;SDS011;64007;50.632;13.700;2023-07-20T13:29:57;1.17;;;0.70;;
75426;SDS011;64007;50.632;13.700;2023-07-20T13:32:23;1.73;;;0.80;;
75426;SDS011;64007;50.632;13.700;2023-07-20T13:34:49;1.95;;;0.93;;
75426;SDS011;64007;50.632;13.700;2023-07-20T13:37:15;2.55;;;0.80;;
75426;SDS011;64007;50.632;13.700;2023-07-20T13:39:41;1.40;;;1.05;;
75426;SDS011;64007;50.632;13.700;2023-07-20T13:42:07;2.83;;;1.00;;
75426;SDS011;64007;50.632;13.700;2023-07-20T13:44:34;2.40;;;1.00;;
75426;SDS011;64007;50.632;13.700;2023-07-20T13:47:00;4.80;;;1.13;;
75426;SDS011;64007;50.632;13.700;2023-07-20T13:49:26;6.65;;;1.05;;
75426;SDS011;64007;50.632;13.700;2023-07-20T13:51:53;2.60;;;1.10;;
75426;SDS011;64007;50.632;13.700;2023-07-20T13:54:19;2.78;;;1.00;;
75426;SDS011;64007;50.632;13.700;2023-07-20T13:56:44;1.67;;;1.10;;
75426;SDS011;64007;50.632;13.700;2023-07-20T13:59:10;1.30;;;1.05;;
75426;SDS011;64007;50.632;13.700;2023-07-20T14:01:36;3.13;;;1.30;;
75426;SDS011;64007;50.632;13.700;2023-07-20T14:04:02;5.75;;;1.23;;
75426;SDS011;64007;50.632;13.700;2023-07-20T14:06:29;1.30;;;1.00;;
75426;SDS011;64007;50.632;13.700;2023-07-20T14:08:56;1.17;;;0.80;;
75426;SDS011;64007;50.632;13.700;2023-07-20T14:11:23;1.15;;;0.80;;
75426;SDS011;64007;50.632;13.700;2023-07-20T14:13:52;1.40;;;1.00;;
75426;SDS011;64007;50.632;13.700;2023-07-20T14:16:19;1.17;;;0.82;;
75426;SDS011;64007;50.632;13.700;2023-07-20T14:18:46;1.70;;;1.10;;
75426;SDS011;64007;50.632;13.700;2023-07-20T14:21:12;1.20;;;1.00;;
75426;SDS011;64007;50.632;13.700;2023-07-20T14:23:38;1.60;;;0.95;;
75426;SDS011;64007;50.632;13.700;2023-07-20T14:26:04;1.52;;;0.90;;
75426;SDS011;64007;50.632;13.700;2023-07-20T14:28:31;1.70;;;0.90;;
75426;SDS011;64007;50.632;13.700;2023-07-20T14:30:57;1.50;;;0.93;;
75426;SDS011;64007;50.632;13.700;2023-07-20T14:33:23;3.15;;;1.05;;
75426;SDS011;64007;50.632;13.700;2023-07-20T14:35:49;2.50;;;0.80;;
75426;SDS011;64007;50.632;13.700;2023-07-20T14:38:14;0.80;;;0.70;;
75426;SDS011;64007;50.632;13.700;2023-07-20T14:40:40;1.40;;;0.80;;
75426;SDS011;64007;50.632;13.700;2023-07-20T14:43:06;2.10;;;0.70;;
75426;SDS011;64007;50.632;13.700;2023-07-20T14:45:32;1.85;;;0.80;;
75426;SDS011;64007;50.632;13.700;2023-07-20T14:47:58;1.80;;;0.90;;
75426;SDS011;64007;50.632;13.700;2023-07-20T14:50:24;1.35;;;0.90;;